Time;durP1;ratioP1;P1;durP2;ratioP2;P2;SDS_P1;SDS_P2;PMS_P1;PMS_P2;Temp;Humidity;BMP_temperature;BMP_pressure;BME280_temperature;BME280_humidity;BME280_pressure;Samples;Min_cycle;Max_cycle;Signal;HPM_P1;HPM_P2
2023/01/08 00:01:12;;;;;;;2.72;0.60;;;24.60;58.80;;;;;;5069554;28;20024;-67
2023/01/08 00:03:40;;;;;;;3.28;0.70;;;25.60;62.50;;;;;;5069498;28;20505;-67
2023/01/08 00:06:14;;;;;;;6.60;0.50;;;26.70;60.30;;;;;;5068722;28;20025;-68
2023/01/08 00:08:41;;;;;;;3.85;1.00;;;27.70;54.60;;;;;;5068615;28;20504;-68
2023/01/08 00:11:09;;;;;;;2.10;0.68;;;28.40;52.30;;;;;;5069619;28;20037;-68
2023/01/08 00:13:36;;;;;;;1.38;0.50;;;28.80;53.80;;;;;;5066838;28;20082;-68
2023/01/08 00:16:15;;;;;;;3.97;1.00;;;29.70;53.50;;;;;;5068172;28;20509;-68
2023/01/08 00:18:43;;;;;;;4.80;0.77;;;29.40;50.30;;;;;;5067860;28;20060;-67
2023/01/08 00:21:11;;;;;;;3.22;0.77;;;28.50;50.00;;;;;;5069433;28;20024;-65
2023/01/08 00:23:39;;;;;;;3.47;1.00;;;27.70;50.10;;;;;;5069391;28;20048;-65
2023/01/08 00:26:08;;;;;;;2.22;0.68;;;27.00;52.80;;;;;;5068783;28;20032;-63
2023/01/08 00:28:36;;;;;;;2.55;0.60;;;27.30;51.10;;;;;;5067015;28;20048;-63
2023/01/08 00:31:06;;;;;;;2.10;0.60;;;27.80;52.10;;;;;;5068440;28;20492;-64
2023/01/08 00:33:33;;;;;;;3.72;0.90;;;28.60;51.10;;;;;;5068290;28;20036;-63
2023/01/08 00:36:05;;;;;;;3.10;1.23;;;29.00;52.60;;;;;;5068288;28;20017;-65
2023/01/08 00:38:32;;;;;;;2.75;0.80;;;29.40;50.00;;;;;;5070301;28;20469;-65
2023/01/08 00:41:00;;;;;;;1.88;0.90;;;30.20;53.00;;;;;;5068206;28;20026;-65
2023/01/08 00:43:27;;;;;;;2.05;0.70;;;30.70;48.40;;;;;;5068862;28;20017;-65
2023/01/08 00:45:54;;;;;;;2.28;0.70;;;30.90;47.30;;;;;;5055970;28;20032;-65
2023/01/08 00:48:23;;;;;;;3.30;0.65;;;31.00;48.30;;;;;;5068736;28;20377;-66
2023/01/08 00:50:52;;;;;;;2.47;0.55;;;30.50;47.90;;;;;;5068495;28;20032;-66
2023/01/08 00:53:20;;;;;;;3.10;0.90;;;30.00;46.40;;;;;;5068318;28;20109;-66
2023/01/08 00:55:48;;;;;;;4.00;0.70;;;29.40;46.70;;;;;;5070011;28;20098;-65
2023/01/08 00:58:16;;;;;;;1.70;0.70;;;28.90;49.10;;;;;;5068623;28;20060;-66
2023/01/08 01:00:43;;;;;;;1.73;0.50;;;28.30;49.20;;;;;;5068376;28;20021;-66
2023/01/08 01:03:10;;;;;;;2.75;0.90;;;28.00;49.00;;;;;;5069248;28;20032;-65
2023/01/08 01:05:37;;;;;;;5.20;0.60;;;27.50;49.60;;;;;;5066978;28;20072;-67
2023/01/08 01:08:05;;;;;;;3.30;0.77;;;26.90;50.60;;;;;;5068019;28;20064;-66
2023/01/08 01:10:32;;;;;;;2.47;0.90;;;27.10;54.20;;;;;;5069159;28;20028;-67
2023/01/08 01:12:59;;;;;;;3.55;0.70;;;27.90;53.30;;;;;;5064714;28;20025;-66
2023/01/08 01:15:26;;;;;;;4.05;0.77;;;28.50;48.40;;;;;;5067212;28;20440;-66
2023/01/08 01:17:54;;;;;;;2.25;0.70;;;29.00;49.20;;;;;;5068676;28;20021;-66
2023/01/08 01:20:22;;;;;;;4.05;0.80;;;29.40;53.30;;;;;;5068035;28;20025;-67
2023/01/08 01:22:50;;;;;;;4.85;0.82;;;29.90;50.40;;;;;;5067139;28;20448;-67
2023/01/08 01:25:17;;;;;;;4.07;0.82;;;30.50;53.90;;;;;;5068812;28;20040;-68
2023/01/08 01:27:44;;;;;;;5.25;0.63;;;30.60;48.70;;;;;;5069169;28;20021;-68
2023/01/08 01:30:12;;;;;;;1.88;0.60;;;30.20;44.20;;;;;;5068140;28;20052;-66
2023/01/08 01:32:39;;;;;;;1.83;0.85;;;29.90;44.60;;;;;;5069801;28;20045;-68
2023/01/08 01:35:07;;;;;;;1.55;0.85;;;30.20;50.00;;;;;;5079375;28;20035;-65
2023/01/08 01:37:34;;;;;;;3.90;0.65;;;30.10;45.70;;;;;;5069615;28;20025;-67
2023/01/08 01:40:01;;;;;;;1.25;0.57;;;29.70;46.80;;;;;;5067838;28;20025;-64
2023/01/08 01:42:42;;;;;;;2.72;0.60;;;29.20;47.80;;;;;;5068012;28;20025;-66
2023/01/08 01:45:22;;;;;;;4.03;0.93;;;28.70;49.90;;;;;;5066749;28;20505;-67
2023/01/08 01:48:07;;;;;;;2.03;0.90;;;28.90;49.50;;;;;;5069005;28;20020;-66
2023/01/08 01:50:48;;;;;;;2.45;0.77;;;29.10;46.70;;;;;;5063852;28;20397;-68
2023/01/08 01:53:26;;;;;;;4.35;0.85;;;29.30;49.10;;;;;;5072050;28;20541;-68
2023/01/08 01:55:54;;;;;;;1.75;0.57;;;29.60;46.40;;;;;;5072004;28;20044;-68
2023/01/08 01:58:29;;;;;;;2.70;1.20;;;29.60;46.70;;;;;;5071503;28;21371;-67
2023/01/08 02:01:00;;;;;;;3.60;0.70;;;29.80;50.80;;;;;;5071455;28;20024;-68
2023/01/08 02:03:32;;;;;;;1.70;0.52;;;29.80;47.70;;;;;;5069878;28;20097;-68
2023/01/08 02:06:55;;;;;;;3.22;0.77;;;29.80;47.10;;;;;;5071247;28;20036;-68
2023/01/08 02:09:29;;;;;;;1.90;0.40;;;29.50;47.80;;;;;;5035459;28;20414;-67
2023/01/08 02:12:18;;;;;;;3.00;0.40;;;29.70;46.90;;;;;;5059841;28;20029;-67
2023/01/08 02:14:48;;;;;;;2.33;0.70;;;30.00;48.20;;;;;;5062435;28;20040;-68
2023/01/08 02:17:39;;;;;;;2.70;0.68;;;30.80;49.50;;;;;;5072426;28;20116;-68
2023/01/08 02:20:38;;;;;;;2.25;0.80;;;31.60;50.20;;;;;;5072654;28;20035;-68
2023/01/08 02:23:31;;;;;;;2.10;0.70;;;32.40;47.90;;;;;;5072792;28;20017;-69
2023/01/08 02:26:19;;;;;;;2.60;0.80;;;32.80;45.80;;;;;;5068865;28;20032;-69
2023/01/08 02:29:18;;;;;;;3.35;0.68;;;33.10;43.00;;;;;;5070845;28;20111;-71
2023/01/08 02:31:46;;;;;;;1.98;0.60;;;33.00;44.60;;;;;;5062732;28;20087;-70
2023/01/08 02:34:13;;;;;;;2.42;0.77;;;33.20;47.00;;;;;;5068766;28;20028;-69
2023/01/08 02:36:43;;;;;;;2.25;0.70;;;33.10;44.10;;;;;;5067138;28;20063;-72
2023/01/08 02:39:47;;;;;;;4.32;0.90;;;32.80;43.90;;;;;;5071689;28;20028;-68
2023/01/08 02:42:39;;;;;;;1.52;0.40;;;32.10;44.50;;;;;;5071363;28;20017;-68
2023/01/08 02:45:24;;;;;;;1.85;0.60;;;31.80;47.70;;;;;;5071937;28;20036;-69
2023/01/08 02:48:22;;;;;;;1.83;0.50;;;31.70;47.10;;;;;;5071626;28;20044;-69
2023/01/08 02:51:05;;;;;;;3.08;0.73;;;31.70;44.80;;;;;;5071923;28;20086;-69
2023/01/08 02:53:40;;;;;;;3.33;1.35;;;31.40;44.50;;;;;;5071307;28;20048;-69
2023/01/08 02:56:11;;;;;;;2.58;0.98;;;31.00;46.50;;;;;;5053142;28;20040;-69
2023/01/08 02:58:40;;;;;;;5.85;1.13;;;30.80;46.00;;;;;;5052684;28;20378;-68
2023/01/08 03:01:11;;;;;;;3.05;0.70;;;30.90;46.30;;;;;;5052139;28;20017;-68
2023/01/08 03:03:42;;;;;;;4.97;0.80;;;31.00;43.60;;;;;;5065553;28;20104;-68
2023/01/08 03:06:13;;;;;;;2.17;0.60;;;31.00;45.30;;;;;;5070318;28;20031;-69
2023/01/08 03:08:43;;;;;;;1.23;0.52;;;31.20;47.10;;;;;;5070532;28;20032;-69
2023/01/08 03:11:16;;;;;;;3.70;0.75;;;31.40;48.90;;;;;;5070286;28;20473;-69
2023/01/08 03:13:49;;;;;;;1.83;0.60;;;31.70;45.20;;;;;;5069534;28;20020;-69
2023/01/08 03:16:30;;;;;;;2.65;0.95;;;31.90;43.70;;;;;;5069820;28;20024;-69
2023/01/08 03:19:21;;;;;;;3.50;0.85;;;32.00;43.00;;;;;;5068923;28;20035;-69
2023/01/08 03:21:50;;;;;;;3.05;0.70;;;31.90;43.50;;;;;;5071517;28;20386;-69
2023/01/08 03:24:25;;;;;;;3.35;0.57;;;31.60;43.60;;;;;;5071467;28;20067;-70
2023/01/08 03:26:55;;;;;;;3.50;0.85;;;31.70;45.40;;;;;;5071644;28;20053;-69
2023/01/08 03:29:25;;;;;;;2.97;1.13;;;31.70;45.20;;;;;;5071606;28;20036;-69
2023/01/08 03:31:56;;;;;;;2.42;0.80;;;31.50;44.10;;;;;;5071095;28;20021;-69
2023/01/08 03:34:26;;;;;;;2.50;0.50;;;31.40;44.50;;;;;;5071204;28;20037;-69
2023/01/08 03:36:56;;;;;;;4.75;1.27;;;31.10;44.70;;;;;;5067729;28;20085;-69
2023/01/08 03:39:33;;;;;;;2.45;1.00;;;30.60;42.90;;;;;;5069506;28;20358;-68
2023/01/08 03:42:05;;;;;;;3.67;0.90;;;30.00;43.00;;;;;;5069138;28;20066;-68
2023/01/08 03:44:32;;;;;;;1.92;0.40;;;29.60;45.20;;;;;;5068756;28;20808;-69
2023/01/08 03:46:59;;;;;;;2.00;0.50;;;29.80;44.40;;;;;;5070772;28;20024;-69
2023/01/08 03:49:29;;;;;;;3.00;0.73;;;29.90;46.00;;;;;;5068126;28;20028;-68
2023/01/08 03:51:56;;;;;;;2.65;1.17;;;29.90;44.20;;;;;;5075192;28;20020;-69
2023/01/08 03:54:29;;;;;;;2.17;0.77;;;30.10;46.50;;;;;;5076228;28;20476;-69
2023/01/08 03:56:56;;;;;;;1.63;0.57;;;30.40;45.70;;;;;;5090234;28;20012;-69
2023/01/08 03:59:24;;;;;;;2.70;0.40;;;30.60;45.50;;;;;;5088907;28;20024;-68
2023/01/08 04:01:51;;;;;;;3.35;0.73;;;31.00;45.70;;;;;;5090273;28;20377;-68
2023/01/08 04:04:18;;;;;;;1.27;0.65;;;31.00;44.30;;;;;;5069787;28;20494;-69
2023/01/08 04:06:46;;;;;;;1.67;0.57;;;31.10;43.40;;;;;;5063608;28;20029;-69
2023/01/08 04:09:13;;;;;;;2.50;0.93;;;31.10;43.30;;;;;;5065077;28;20028;-69
2023/01/08 04:11:40;;;;;;;5.53;1.40;;;31.00;43.90;;;;;;5062420;28;20115;-69
2023/01/08 04:14:07;;;;;;;5.88;1.00;;;30.70;47.80;;;;;;5068206;28;20075;-69
2023/01/08 04:16:35;;;;;;;6.10;1.15;;;30.10;48.40;;;;;;5059647;28;20479;-68
2023/01/08 04:19:02;;;;;;;4.95;1.00;;;29.90;49.40;;;;;;5068209;28;20704;-68
2023/01/08 04:21:29;;;;;;;3.83;0.82;;;29.70;50.10;;;;;;5068987;28;20028;-68
2023/01/08 04:23:56;;;;;;;4.80;1.98;;;28.70;50.00;;;;;;5051982;28;20036;-67
2023/01/08 04:26:24;;;;;;;5.95;1.00;;;28.30;51.00;;;;;;5068681;28;20032;-68
2023/01/08 04:28:51;;;;;;;5.88;0.90;;;27.90;51.40;;;;;;5067712;28;20653;-68
2023/01/08 04:31:18;;;;;;;5.75;0.93;;;28.00;52.70;;;;;;5068115;28;20111;-68
2023/01/08 04:33:45;;;;;;;5.30;1.30;;;28.00;53.40;;;;;;5065656;28;20071;-67
2023/01/08 04:36:13;;;;;;;8.48;1.30;;;27.70;52.50;;;;;;5066463;28;20028;-68
2023/01/08 04:38:40;;;;;;;7.43;1.13;;;27.40;55.70;;;;;;5056835;28;20103;-68
2023/01/08 04:41:07;;;;;;;4.32;1.73;;;27.30;56.90;;;;;;5067544;28;20025;-68
2023/01/08 04:43:35;;;;;;;6.95;1.10;;;27.40;58.10;;;;;;5067518;28;20132;-68
2023/01/08 04:46:06;;;;;;;16.00;1.70;;;27.50;57.70;;;;;;5067879;28;20074;-67
2023/01/08 04:48:33;;;;;;;6.07;1.25;;;26.90;58.50;;;;;;5066865;28;20032;-68
2023/01/08 04:51:02;;;;;;;5.80;1.38;;;27.00;58.70;;;;;;5066307;28;20077;-68
2023/01/08 04:53:32;;;;;;;4.15;1.13;;;27.00;59.00;;;;;;5064821;28;20025;-68
2023/01/08 04:56:10;;;;;;;4.68;1.38;;;26.50;59.20;;;;;;5063653;28;20036;-68
2023/01/08 04:58:38;;;;;;;5.18;1.45;;;26.80;59.00;;;;;;5065348;28;20119;-68
2023/01/08 05:01:12;;;;;;;7.60;1.58;;;26.30;58.20;;;;;;5065749;28;20033;-69
2023/01/08 05:03:39;;;;;;;5.05;1.10;;;26.20;59.30;;;;;;5064359;28;20028;-68
2023/01/08 05:06:08;;;;;;;3.90;1.20;;;26.00;59.90;;;;;;5058779;28;20688;-68
2023/01/08 05:08:35;;;;;;;2.78;0.82;;;25.90;60.10;;;;;;5065804;28;20037;-68
2023/01/08 05:11:03;;;;;;;9.40;1.60;;;25.90;60.00;;;;;;5067459;28;20025;-68
2023/01/08 05:13:30;;;;;;;2.97;1.13;;;25.90;61.50;;;;;;5067266;28;20499;-68
2023/01/08 05:16:01;;;;;;;6.20;1.00;;;26.00;60.90;;;;;;5067190;28;20131;-68
2023/01/08 05:18:29;;;;;;;4.88;1.15;;;26.00;60.50;;;;;;5067483;28;20031;-68
2023/01/08 05:21:04;;;;;;;13.25;1.48;;;25.90;61.50;;;;;;5067374;28;20021;-68
2023/01/08 05:23:32;;;;;;;5.57;1.42;;;26.10;60.10;;;;;;5067390;28;20430;-68
2023/01/08 05:26:00;;;;;;;7.30;1.20;;;25.90;60.00;;;;;;5066182;28;20436;-68
2023/01/08 05:28:29;;;;;;;3.60;1.13;;;25.60;60.30;;;;;;5070679;28;20037;-68
2023/01/08 05:30:57;;;;;;;6.03;1.50;;;25.50;61.40;;;;;;5070007;28;20112;-68
2023/01/08 05:33:24;;;;;;;3.95;0.85;;;25.60;60.60;;;;;;5071252;28;20028;-68
2023/01/08 05:35:52;;;;;;;8.25;1.60;;;25.70;61.20;;;;;;5070811;28;20055;-67
2023/01/08 05:38:19;;;;;;;4.25;1.13;;;25.60;61.40;;;;;;5070844;28;20028;-68
2023/01/08 05:40:46;;;;;;;3.55;1.08;;;25.50;61.20;;;;;;5070890;28;20028;-68
2023/01/08 05:43:14;;;;;;;4.03;0.90;;;25.40;61.20;;;;;;5069835;28;20090;-67
2023/01/08 05:45:41;;;;;;;6.22;0.80;;;25.30;61.40;;;;;;5069162;28;20036;-68
2023/01/08 05:48:08;;;;;;;4.15;1.48;;;25.30;61.30;;;;;;5075029;28;20024;-68
2023/01/08 05:50:36;;;;;;;7.65;1.13;;;25.50;61.20;;;;;;5074593;28;20025;-68
2023/01/08 05:53:07;;;;;;;7.70;1.85;;;25.60;61.30;;;;;;5065281;28;20017;-68
2023/01/08 05:55:34;;;;;;;6.35;1.13;;;25.70;61.50;;;;;;5068812;28;20221;-67
2023/01/08 05:58:03;;;;;;;5.32;0.90;;;26.10;61.30;;;;;;5073666;28;20435;-67
2023/01/08 06:00:31;;;;;;;5.00;1.10;;;26.00;59.90;;;;;;5076872;28;20016;-68
2023/01/08 06:02:59;;;;;;;4.40;1.02;;;26.20;60.00;;;;;;5085526;28;20032;-68
2023/01/08 06:05:26;;;;;;;7.68;1.30;;;25.90;60.00;;;;;;5071741;28;20047;-68
2023/01/08 06:07:53;;;;;;;3.20;0.95;;;25.70;60.30;;;;;;5078471;28;20021;-68
2023/01/08 06:10:20;;;;;;;5.18;1.02;;;25.60;61.30;;;;;;5067422;28;20043;-66
2023/01/08 06:12:48;;;;;;;6.32;1.73;;;25.60;61.00;;;;;;5065625;28;20035;-68
2023/01/08 06:15:15;;;;;;;5.30;1.02;;;25.70;60.50;;;;;;5052688;28;20089;-68
2023/01/08 06:17:42;;;;;;;5.43;1.23;;;25.60;60.70;;;;;;5070809;28;20036;-68
2023/01/08 06:20:10;;;;;;;5.05;1.10;;;25.30;62.00;;;;;;5072731;28;20017;-68
2023/01/08 06:22:37;;;;;;;4.10;1.25;;;25.40;62.40;;;;;;5072951;28;20031;-68
2023/01/08 06:25:05;;;;;;;4.55;1.08;;;25.30;62.10;;;;;;5070477;28;20041;-67
2023/01/08 06:27:32;;;;;;;3.75;0.60;;;25.40;62.60;;;;;;5072725;28;20090;-67
2023/01/08 06:29:59;;;;;;;7.85;0.95;;;24.90;63.30;;;;;;5072654;28;20517;-67
2023/01/08 06:32:27;;;;;;;5.55;1.17;;;24.80;64.50;;;;;;5072652;28;20098;-67
2023/01/08 06:34:54;;;;;;;7.15;1.48;;;24.80;65.90;;;;;;5072620;28;20020;-68
2023/01/08 06:37:21;;;;;;;3.88;0.85;;;24.80;65.80;;;;;;5072157;28;20033;-68
2023/01/08 06:39:49;;;;;;;5.25;1.10;;;25.20;65.20;;;;;;5072195;28;20021;-68
2023/01/08 06:42:16;;;;;;;6.63;1.60;;;25.40;64.50;;;;;;5072633;28;20017;-68
2023/01/08 06:44:43;;;;;;;7.63;2.40;;;25.40;65.10;;;;;;5072564;28;20064;-68
2023/01/08 06:47:10;;;;;;;10.82;1.38;;;25.40;65.00;;;;;;5072445;28;20096;-68
2023/01/08 06:49:37;;;;;;;4.32;0.80;;;25.20;65.10;;;;;;5072135;28;20068;-67
2023/01/08 06:52:05;;;;;;;4.95;1.30;;;25.20;65.00;;;;;;5071653;28;20021;-67
2023/01/08 06:54:32;;;;;;;8.77;1.30;;;25.00;65.70;;;;;;5072045;28;20101;-68
2023/01/08 06:56:59;;;;;;;5.00;1.23;;;25.10;66.80;;;;;;5072297;28;20432;-67
2023/01/08 06:59:26;;;;;;;7.65;1.52;;;25.10;66.60;;;;;;5072055;28;20020;-67
2023/01/08 07:01:54;;;;;;;6.72;1.13;;;25.10;66.00;;;;;;5072025;28;20024;-67
2023/01/08 07:04:21;;;;;;;6.07;1.38;;;25.00;67.60;;;;;;5071486;28;20127;-68
2023/01/08 07:06:48;;;;;;;6.55;0.93;;;25.00;67.20;;;;;;5071988;28;20063;-68
2023/01/08 07:09:15;;;;;;;4.18;1.15;;;25.10;67.40;;;;;;5072173;28;20039;-67
2023/01/08 07:11:43;;;;;;;4.32;0.80;;;25.10;66.70;;;;;;5072167;28;20351;-67
2023/01/08 07:14:10;;;;;;;4.45;1.15;;;25.20;67.70;;;;;;5071579;28;20077;-67
2023/01/08 07:16:37;;;;;;;8.80;1.40;;;25.00;67.00;;;;;;5071854;28;20107;-67
2023/01/08 07:19:05;;;;;;;3.95;1.00;;;24.80;68.50;;;;;;5071639;28;20032;-67
2023/01/08 07:21:32;;;;;;;8.88;1.80;;;24.90;68.80;;;;;;5071852;28;20017;-67
2023/01/08 07:23:59;;;;;;;9.75;1.33;;;24.80;68.30;;;;;;5071599;28;20024;-67
2023/01/08 07:26:26;;;;;;;5.65;1.08;;;24.70;69.00;;;;;;5070590;28;20035;-69
2023/01/08 07:28:54;;;;;;;6.82;1.05;;;24.70;68.70;;;;;;5070829;28;20031;-65
2023/01/08 07:31:21;;;;;;;6.00;1.60;;;24.70;69.90;;;;;;5070785;28;20024;-66
2023/01/08 07:33:49;;;;;;;3.28;1.25;;;24.50;70.90;;;;;;5069480;28;20017;-66
2023/01/08 07:36:21;;;;;;;5.97;1.10;;;24.60;71.10;;;;;;5070841;28;20620;-66
2023/01/08 07:38:49;;;;;;;5.85;1.13;;;24.30;71.40;;;;;;5069357;28;20064;-65
2023/01/08 07:41:17;;;;;;;2.58;0.90;;;24.20;72.30;;;;;;5070349;28;20055;-66
2023/01/08 07:43:46;;;;;;;5.45;2.08;;;24.20;72.80;;;;;;5070981;28;20035;-64
2023/01/08 07:46:14;;;;;;;8.50;1.77;;;24.10;73.10;;;;;;5070146;28;20062;-64
2023/01/08 07:48:41;;;;;;;6.93;2.00;;;24.00;73.50;;;;;;5068031;28;20097;-64
2023/01/08 07:51:09;;;;;;;6.93;1.42;;;23.80;74.40;;;;;;5069644;28;20017;-63
2023/01/08 07:53:37;;;;;;;4.28;0.95;;;23.70;76.00;;;;;;5057267;28;20029;-63
2023/01/08 07:56:07;;;;;;;7.30;1.25;;;23.60;77.40;;;;;;5067716;28;20024;-64
2023/01/08 07:58:35;;;;;;;6.22;1.25;;;23.40;78.00;;;;;;5066289;28;20028;-63
2023/01/08 08:01:02;;;;;;;6.47;1.00;;;23.40;78.60;;;;;;5067062;28;20029;-63
2023/01/08 08:03:30;;;;;;;6.68;1.30;;;23.30;79.80;;;;;;5066680;28;20825;-64
2023/01/08 08:06:00;;;;;;;5.05;1.38;;;23.20;80.00;;;;;;5067167;28;20181;-64
2023/01/08 08:08:27;;;;;;;4.35;1.40;;;23.00;80.70;;;;;;5067317;28;20492;-63
2023/01/08 08:10:54;;;;;;;4.68;1.08;;;22.90;82.30;;;;;;5067239;28;20040;-63
2023/01/08 08:13:22;;;;;;;6.75;1.50;;;22.80;83.40;;;;;;5066691;28;20028;-63
2023/01/08 08:15:49;;;;;;;7.38;1.52;;;22.70;84.30;;;;;;5066554;28;20478;-63
2023/01/08 08:18:16;;;;;;;4.03;0.95;;;22.60;84.50;;;;;;5067416;28;20036;-66
2023/01/08 08:20:43;;;;;;;9.13;1.35;;;22.40;85.30;;;;;;5067373;28;20016;-64
2023/01/08 08:23:15;;;;;;;4.60;1.20;;;22.30;86.40;;;;;;5066560;28;20032;-63
2023/01/08 08:25:42;;;;;;;8.65;1.42;;;22.20;87.60;;;;;;5066994;28;20538;-64
2023/01/08 08:28:11;;;;;;;6.80;1.73;;;22.10;88.00;;;;;;5066678;28;20125;-64
2023/01/08 08:30:39;;;;;;;3.22;0.80;;;22.00;88.90;;;;;;5066491;28;20393;-64
2023/01/08 08:33:07;;;;;;;7.60;1.15;;;22.00;90.00;;;;;;5065449;28;20147;-63
2023/01/08 08:35:35;;;;;;;6.47;1.05;;;21.90;90.20;;;;;;5066693;28;20397;-64
2023/01/08 08:38:03;;;;;;;6.35;0.98;;;21.80;90.70;;;;;;5067082;28;20024;-64
2023/01/08 08:40:30;;;;;;;3.55;1.85;;;21.70;90.80;;;;;;5064315;28;20040;-64
2023/01/08 08:43:02;;;;;;;4.10;1.65;;;21.60;91.10;;;;;;5066632;28;20027;-65
2023/01/08 08:45:30;;;;;;;6.03;0.80;;;21.50;91.40;;;;;;5066528;28;20393;-66
2023/01/08 08:47:57;;;;;;;5.50;1.00;;;21.40;91.90;;;;;;5067133;28;20028;-65
2023/01/08 08:50:24;;;;;;;7.32;1.13;;;21.30;92.30;;;;;;5066146;28;20119;-65
2023/01/08 08:52:52;;;;;;;5.60;1.02;;;21.20;92.70;;;;;;5065041;28;20397;-65
2023/01/08 08:55:20;;;;;;;6.80;1.10;;;21.10;93.20;;;;;;5066351;28;20052;-63
2023/01/08 08:57:48;;;;;;;5.25;0.90;;;21.00;93.70;;;;;;5067021;28;20154;-65
2023/01/08 09:00:16;;;;;;;7.13;1.30;;;21.00;94.10;;;;;;5067424;28;20035;-63
2023/01/08 09:02:43;;;;;;;9.00;1.52;;;20.90;94.40;;;;;;5070939;28;20024;-65
2023/01/08 09:05:11;;;;;;;4.47;1.58;;;20.80;95.10;;;;;;5070168;28;20078;-63
2023/01/08 09:07:38;;;;;;;5.07;1.70;;;20.70;95.00;;;;;;5070816;28;20117;-63
2023/01/08 09:10:06;;;;;;;7.65;1.13;;;20.70;95.20;;;;;;5070567;28;20165;-64
2023/01/08 09:12:34;;;;;;;8.32;1.83;;;20.60;95.40;;;;;;5070265;28;20132;-64
2023/01/08 09:15:01;;;;;;;6.05;1.10;;;20.50;95.80;;;;;;5070134;28;20472;-64
2023/01/08 09:17:28;;;;;;;4.28;1.40;;;20.40;96.10;;;;;;5069674;28;20500;-63
2023/01/08 09:19:55;;;;;;;6.93;1.20;;;20.30;96.70;;;;;;5069948;28;20043;-65
2023/01/08 09:22:22;;;;;;;4.95;0.90;;;20.10;96.90;;;;;;5070403;28;20398;-64
2023/01/08 09:24:50;;;;;;;6.57;1.50;;;20.00;97.90;;;;;;5070531;28;20042;-64
2023/01/08 09:27:17;;;;;;;9.68;1.65;;;19.90;98.00;;;;;;5070000;28;20029;-65
2023/01/08 09:29:44;;;;;;;4.40;1.20;;;19.90;98.30;;;;;;5070330;28;20411;-63
2023/01/08 09:32:12;;;;;;;5.68;1.13;;;19.90;98.50;;;;;;5070561;28;20028;-64
2023/01/08 09:34:40;;;;;;;9.32;1.30;;;19.80;98.80;;;;;;5070205;28;20103;-64
2023/01/08 09:37:07;;;;;;;7.50;1.15;;;19.80;98.90;;;;;;5070226;28;20073;-64
2023/01/08 09:39:35;;;;;;;3.60;0.85;;;19.70;99.30;;;;;;5069783;28;20104;-64
2023/01/08 09:42:04;;;;;;;4.45;0.80;;;19.60;99.60;;;;;;5054975;28;20036;-64
2023/01/08 09:44:40;;;;;;;6.65;1.00;;;19.50;99.80;;;;;;5069888;28;20131;-70
2023/01/08 09:47:21;;;;;;;8.55;1.45;;;19.50;99.90;;;;;;5070208;28;20043;-70
2023/01/08 09:49:49;;;;;;;5.43;0.90;;;19.50;99.90;;;;;;5064440;28;20040;-69
2023/01/08 09:52:17;;;;;;;6.43;1.55;;;19.40;99.90;;;;;;5068735;28;20032;-69
2023/01/08 09:54:44;;;;;;;12.30;1.80;;;19.30;99.90;;;;;;5069623;28;20409;-69
2023/01/08 09:57:17;;;;;;;13.35;1.48;;;19.20;99.90;;;;;;5069013;28;20024;-69
2023/01/08 09:59:46;;;;;;;3.47;0.98;;;19.10;99.90;;;;;;5072969;28;20052;-69
2023/01/08 10:02:23;;;;;;;4.43;1.02;;;19.10;99.90;;;;;;5069690;28;20055;-69
2023/01/08 10:05:02;;;;;;;2.92;1.13;;;18.90;99.90;;;;;;5050340;28;20123;-68
2023/01/08 10:07:30;;;;;;;10.68;1.30;;;18.80;99.90;;;;;;5069050;28;20121;-67
2023/01/08 10:09:57;;;;;;;5.82;1.23;;;18.70;99.90;;;;;;5068514;28;20112;-69
2023/01/08 10:12:32;;;;;;;4.90;0.98;;;18.50;99.90;;;;;;5068573;28;20037;-69
2023/01/08 10:15:06;;;;;;;3.92;1.10;;;18.40;99.90;;;;;;5068189;28;20020;-68
2023/01/08 10:17:45;;;;;;;2.70;0.95;;;18.30;99.90;;;;;;5068841;28;20033;-69
2023/01/08 10:20:18;;;;;;;6.30;1.15;;;18.20;99.90;;;;;;5069424;28;20034;-65
2023/01/08 10:22:49;;;;;;;5.63;1.60;;;18.10;99.90;;;;;;5069850;28;20749;-64
2023/01/08 10:25:20;;;;;;;9.38;1.30;;;17.90;99.90;;;;;;5069362;28;20040;-67
2023/01/08 10:27:50;;;;;;;3.95;0.90;;;17.80;99.90;;;;;;5069017;28;20063;-68
2023/01/08 10:30:41;;;;;;;6.93;1.00;;;17.70;99.90;;;;;;5069015;28;20033;-69
2023/01/08 10:33:25;;;;;;;4.35;1.00;;;17.70;99.90;;;;;;5068694;28;20123;-71
2023/01/08 10:35:57;;;;;;;4.30;0.85;;;17.60;99.90;;;;;;5067332;28;20060;-68
2023/01/08 10:38:30;;;;;;;7.25;1.40;;;17.40;99.90;;;;;;5068920;28;20068;-69
2023/01/08 10:40:57;;;;;;;4.55;1.08;;;17.30;99.90;;;;;;5062223;28;20020;-68
2023/01/08 10:43:30;;;;;;;4.78;1.52;;;17.20;99.90;;;;;;5068821;28;20033;-69
2023/01/08 10:46:15;;;;;;;7.45;1.10;;;17.10;99.90;;;;;;5068896;28;20599;-68
2023/01/08 10:48:49;;;;;;;5.05;1.23;;;17.00;99.90;;;;;;5067734;28;20029;-69
2023/01/08 10:51:20;;;;;;;5.25;2.00;;;17.00;99.90;;;;;;5069844;28;20027;-69
2023/01/08 10:53:47;;;;;;;4.32;1.08;;;16.90;99.90;;;;;;5067760;28;20354;-68
2023/01/08 10:56:41;;;;;;;3.38;1.10;;;16.80;99.90;;;;;;5069317;28;20032;-69
2023/01/08 10:59:18;;;;;;;6.78;1.33;;;16.70;99.90;;;;;;5064952;28;20032;-71
2023/01/08 11:01:57;;;;;;;5.13;2.05;;;16.60;99.90;;;;;;5065703;28;20027;-69
2023/01/08 11:04:35;;;;;;;8.10;1.60;;;16.50;99.90;;;;;;5061086;28;20042;-69
2023/01/08 11:07:06;;;;;;;6.13;1.30;;;16.50;99.90;;;;;;5061966;28;20025;-69
2023/01/08 11:09:40;;;;;;;4.13;1.55;;;16.50;99.90;;;;;;5064471;28;20095;-69
2023/01/08 11:12:34;;;;;;;8.80;1.83;;;16.40;99.90;;;;;;5062201;28;20035;-67
2023/01/08 11:15:03;;;;;;;10.43;2.15;;;16.30;99.90;;;;;;5057625;28;20032;-67
2023/01/08 11:17:31;;;;;;;6.35;1.15;;;16.20;99.90;;;;;;5063079;28;20044;-68
2023/01/08 11:20:19;;;;;;;3.92;1.58;;;16.10;99.90;;;;;;5064281;28;20409;-70
2023/01/08 11:22:46;;;;;;;5.82;1.60;;;16.10;99.90;;;;;;5062168;28;20489;-70
2023/01/08 11:25:20;;;;;;;4.43;1.40;;;16.10;99.90;;;;;;5064965;28;20036;-70
2023/01/08 11:27:50;;;;;;;6.05;1.23;;;16.10;99.90;;;;;;5066253;28;20020;-69
2023/01/08 11:30:23;;;;;;;8.40;1.70;;;16.00;99.90;;;;;;5063794;28;20066;-69
2023/01/08 11:33:15;;;;;;;4.60;1.25;;;16.00;99.90;;;;;;5062594;28;20104;-70
2023/01/08 11:36:11;;;;;;;6.57;1.30;;;16.00;99.90;;;;;;5067951;28;20031;-69
2023/01/08 11:38:38;;;;;;;8.40;1.20;;;16.00;99.90;;;;;;5067503;28;20389;-70
2023/01/08 11:41:38;;;;;;;7.40;2.05;;;16.00;99.90;;;;;;5067805;28;20032;-69
2023/01/08 11:44:08;;;;;;;6.32;1.77;;;16.00;99.90;;;;;;5065922;28;20036;-70
2023/01/08 11:46:50;;;;;;;4.82;1.50;;;16.10;99.90;;;;;;5067662;28;20139;-70
2023/01/08 11:49:39;;;;;;;5.90;1.60;;;16.10;99.90;;;;;;5065435;28;20042;-70
2023/01/08 11:52:18;;;;;;;3.63;1.27;;;16.10;99.90;;;;;;5067396;28;20032;-64
2023/01/08 11:54:52;;;;;;;6.88;1.77;;;16.20;99.90;;;;;;5064606;28;20394;-69
2023/01/08 11:57:34;;;;;;;5.80;1.33;;;16.20;99.90;;;;;;5064431;28;20481;-69
2023/01/08 12:00:10;;;;;;;2.90;0.90;;;16.10;99.90;;;;;;5059875;28;20020;-69
2023/01/08 12:02:57;;;;;;;4.90;1.45;;;16.10;99.90;;;;;;5067115;28;20496;-70
2023/01/08 12:06:00;;;;;;;12.10;1.70;;;16.10;99.90;;;;;;5066717;28;20040;-71
2023/01/08 12:08:54;;;;;;;5.80;2.15;;;16.10;99.90;;;;;;5076431;28;20030;-65
2023/01/08 12:11:30;;;;;;;3.40;1.02;;;16.10;99.90;;;;;;5070246;28;20028;-69
2023/01/08 12:14:35;;;;;;;4.68;1.25;;;16.00;99.90;;;;;;5086528;28;20104;-70
2023/01/08 12:17:08;;;;;;;10.15;2.15;;;16.00;99.90;;;;;;5067676;28;20032;-70
2023/01/08 12:20:11;;;;;;;5.30;1.60;;;16.00;99.90;;;;;;5065946;28;20029;-70
2023/01/08 12:23:11;;;;;;;3.85;1.30;;;15.90;99.90;;;;;;5074957;28;20024;-69
2023/01/08 12:25:57;;;;;;;11.95;2.55;;;15.90;99.90;;;;;;5058844;28;20110;-69
2023/01/08 12:28:42;;;;;;;14.05;2.25;;;15.90;99.90;;;;;;5065530;28;20060;-69
2023/01/08 12:31:26;;;;;;;8.38;1.17;;;15.90;99.90;;;;;;5068085;28;20023;-69
2023/01/08 12:34:08;;;;;;;6.83;1.37;;;15.90;99.90;;;;;;5067116;28;20020;-68
2023/01/08 12:36:49;;;;;;;7.88;1.63;;;16.00;99.90;;;;;;5060685;28;20393;-68
2023/01/08 12:39:23;;;;;;;8.13;1.58;;;16.10;99.90;;;;;;5062162;28;20056;-67
2023/01/08 12:41:54;;;;;;;7.18;1.40;;;16.20;99.90;;;;;;5075260;28;20024;-68
2023/01/08 12:44:27;;;;;;;4.20;1.95;;;16.20;99.90;;;;;;5080718;28;20040;-69
2023/01/08 12:47:01;;;;;;;7.90;1.80;;;16.20;99.90;;;;;;5070452;28;20098;-69
2023/01/08 12:50:05;;;;;;;4.25;1.75;;;16.30;99.90;;;;;;5073058;28;20265;-70
2023/01/08 12:52:59;;;;;;;3.28;1.17;;;16.30;99.90;;;;;;5047490;28;20430;-70
2023/01/08 12:55:38;;;;;;;10.95;1.88;;;16.30;99.90;;;;;;5065408;28;20451;-69
2023/01/08 12:58:22;;;;;;;6.82;1.40;;;16.20;99.90;;;;;;5066426;28;20551;-68
2023/01/08 13:01:00;;;;;;;6.40;1.80;;;16.20;99.90;;;;;;5065372;28;20108;-69
2023/01/08 13:03:29;;;;;;;10.63;1.95;;;16.20;99.90;;;;;;5066368;28;20541;-69
2023/01/08 13:06:16;;;;;;;4.97;2.65;;;16.20;99.90;;;;;;5065721;28;20125;-69
2023/01/08 13:08:58;;;;;;;2.65;1.17;;;16.10;99.90;;;;;;5071298;28;20024;-69
2023/01/08 13:11:33;;;;;;;8.10;1.63;;;16.10;99.90;;;;;;5056853;28;20068;-69